createdAt,value
2022-08-11T00:00:19.175Z,1010.50
2022-08-11T00:02:52.163Z,1010.52
2022-08-11T00:05:25.179Z,1010.55
2022-08-11T00:07:58.143Z,1010.54
2022-08-11T00:10:31.129Z,1010.55
2022-08-11T00:13:04.134Z,1010.56
2022-08-11T00:15:37.163Z,1010.57
2022-08-11T00:18:10.060Z,1010.57
2022-08-11T00:20:42.894Z,1010.56
2022-08-11T00:23:18.462Z,1010.57
2022-08-11T00:25:49.164Z,1010.58
2022-08-11T00:28:22.170Z,1010.57
2022-08-11T00:30:55.231Z,1010.56
2022-08-11T00:33:44.335Z,1010.54
2022-08-11T00:36:01.160Z,1010.53
2022-08-11T00:38:34.084Z,1010.52
2022-08-11T00:41:07.160Z,1010.52
2022-08-11T00:43:40.210Z,1010.52
2022-08-11T00:46:13.152Z,1010.51
2022-08-11T00:48:46.188Z,1010.50
2022-08-11T00:51:19.171Z,1010.50
2022-08-11T00:53:52.219Z,1010.50
2022-08-11T00:56:25.173Z,1010.51
2022-08-11T00:58:58.203Z,1010.51
2022-08-11T01:01:31.361Z,1010.51
2022-08-11T01:04:04.231Z,1010.51
2022-08-11T01:06:37.177Z,1010.50
2022-08-11T01:09:10.240Z,1010.50
2022-08-11T01:11:56.048Z,1010.50
2022-08-11T01:14:16.203Z,1010.51
2022-08-11T01:16:49.257Z,1010.50
2022-08-11T01:19:22.171Z,1010.50
2022-08-11T01:21:55.270Z,1010.52
2022-08-11T01:24:28.243Z,1010.52
2022-08-11T01:27:01.263Z,1010.51
2022-08-11T01:29:34.258Z,1010.51
2022-08-11T01:32:07.185Z,1010.50
2022-08-11T01:34:40.282Z,1010.49
2022-08-11T01:37:13.236Z,1010.49
2022-08-11T01:39:46.350Z,1010.50
2022-08-11T01:42:19.306Z,1010.50
2022-08-11T01:44:52.282Z,1010.52
2022-08-11T01:47:25.200Z,1010.54
2022-08-11T01:50:08.227Z,1010.54
2022-08-11T01:52:35.189Z,1010.57
2022-08-11T01:55:04.205Z,1010.59
2022-08-11T01:57:37.344Z,1010.60
2022-08-11T02:00:10.262Z,1010.62
2022-08-11T02:02:43.322Z,1010.63
2022-08-11T02:05:16.221Z,1010.65
2022-08-11T02:07:49.324Z,1010.67
2022-08-11T02:10:22.297Z,1010.67
2022-08-11T02:12:55.378Z,1010.68
2022-08-11T02:15:28.256Z,1010.68
2022-08-11T02:18:01.328Z,1010.67
2022-08-11T02:20:33.987Z,1010.65
2022-08-11T02:23:07.303Z,1010.63
2022-08-11T02:25:40.332Z,1010.62
2022-08-11T02:28:13.320Z,1010.62
2022-08-11T02:30:46.309Z,1010.61
2022-08-11T02:33:19.363Z,1010.60
2022-08-11T02:35:52.369Z,1010.58
2022-08-11T02:38:25.347Z,1010.58
2022-08-11T02:40:58.259Z,1010.57
2022-08-11T02:43:31.361Z,1010.56
2022-08-11T02:46:04.261Z,1010.54
2022-08-11T02:48:37.356Z,1010.53
2022-08-11T02:51:10.270Z,1010.52
2022-08-11T02:53:43.379Z,1010.51
2022-08-11T02:56:16.346Z,1010.49
2022-08-11T02:58:49.322Z,1010.49
2022-08-11T03:01:22.418Z,1010.48
2022-08-11T03:03:55.342Z,1010.47
2022-08-11T03:06:28.396Z,1010.49
2022-08-11T03:09:01.400Z,1010.49
2022-08-11T03:11:34.395Z,1010.48
2022-08-11T03:14:07.304Z,1010.50
2022-08-11T03:16:46.296Z,1010.51
2022-08-11T03:19:19.424Z,1010.52
2022-08-11T03:22:03.044Z,1010.53
2022-08-11T03:24:25.428Z,1010.53
2022-08-11T03:26:58.428Z,1010.54
2022-08-11T03:29:31.354Z,1010.55
2022-08-11T03:32:07.357Z,1010.54
2022-08-11T03:34:40.427Z,1010.53
2022-08-11T03:37:17.188Z,1010.55
2022-08-11T03:39:56.455Z,1010.58
2022-08-11T03:42:19.488Z,1010.59
2022-08-11T03:44:52.367Z,1010.60
2022-08-11T03:47:25.435Z,1010.60
2022-08-11T03:49:58.453Z,1010.62
2022-08-11T03:52:31.426Z,1010.63
2022-08-11T03:55:04.393Z,1010.64
2022-08-11T03:57:37.394Z,1010.66
2022-08-11T04:00:10.463Z,1010.67
2022-08-11T04:02:43.443Z,1010.69
2022-08-11T04:05:16.440Z,1010.69
2022-08-11T04:07:49.460Z,1010.69
2022-08-11T04:10:22.475Z,1010.70
2022-08-11T04:12:55.538Z,1010.70
2022-08-11T04:15:28.377Z,1010.70
2022-08-11T04:18:04.320Z,1010.72
2022-08-11T04:20:37.394Z,1010.71
2022-08-11T04:23:10.151Z,1010.71
2022-08-11T04:25:55.862Z,1010.70
2022-08-11T04:28:18.889Z,1010.69
2022-08-11T04:30:49.297Z,1010.67
2022-08-11T04:33:22.296Z,1010.67
2022-08-11T04:35:55.284Z,1010.67
2022-08-11T04:38:28.296Z,1010.66
2022-08-11T04:41:01.468Z,1010.67
2022-08-11T04:43:34.485Z,1010.66
2022-08-11T04:46:07.159Z,1010.67
2022-08-11T04:48:40.436Z,1010.66
2022-08-11T04:51:17.068Z,1010.68
2022-08-11T04:53:46.549Z,1010.68
2022-08-11T04:56:19.508Z,1010.69
2022-08-11T04:58:56.402Z,1010.69
2022-08-11T05:01:32.799Z,1010.71
2022-08-11T05:04:02.521Z,1010.72
2022-08-11T05:06:35.462Z,1010.74
2022-08-11T05:09:08.490Z,1010.74
2022-08-11T05:11:41.473Z,1010.74
2022-08-11T05:14:14.386Z,1010.74
2022-08-11T05:16:47.250Z,1010.73
2022-08-11T05:19:20.542Z,1010.72
2022-08-11T05:21:53.611Z,1010.72
2022-08-11T05:24:26.576Z,1010.74
2022-08-11T05:26:59.670Z,1010.77
2022-08-11T05:29:32.491Z,1010.76
2022-08-11T05:32:05.506Z,1010.77
2022-08-11T05:34:38.534Z,1010.77
2022-08-11T05:37:26.249Z,1010.80
2022-08-11T05:39:44.501Z,1010.83
2022-08-11T05:42:29.375Z,1010.85
2022-08-11T05:44:50.584Z,1010.88
2022-08-11T05:47:23.659Z,1010.91
2022-08-11T05:49:57.978Z,1010.90
2022-08-11T05:52:31.817Z,1010.91
2022-08-11T05:55:06.147Z,1010.92
2022-08-11T05:57:49.855Z,1010.93
2022-08-11T06:00:08.597Z,1010.93
2022-08-11T06:02:41.553Z,1010.96
2022-08-11T06:05:14.516Z,1010.96
2022-08-11T06:07:49.464Z,1010.97
2022-08-11T06:10:20.564Z,1010.99
2022-08-11T06:12:53.653Z,1010.98
2022-08-11T06:15:26.652Z,1010.98
2022-08-11T06:17:59.663Z,1010.97
2022-08-11T06:20:32.673Z,1010.98
2022-08-11T06:23:05.614Z,1010.97
2022-08-11T06:25:38.592Z,1010.97
2022-08-11T06:28:11.325Z,1010.99
2022-08-11T06:30:44.481Z,1010.99
2022-08-11T06:33:17.491Z,1011.00
2022-08-11T06:35:50.354Z,1011.03
2022-08-11T06:38:23.529Z,1011.04
2022-08-11T06:40:56.473Z,1011.04
2022-08-11T06:43:29.353Z,1011.03
2022-08-11T06:46:25.215Z,1011.03
2022-08-11T06:48:49.731Z,1011.03
2022-08-11T06:51:22.690Z,1011.02
2022-08-11T06:54:03.276Z,1011.01
2022-08-11T06:56:28.719Z,1010.99
2022-08-11T06:59:01.382Z,1010.98
2022-08-11T07:01:34.452Z,1010.97
2022-08-11T07:04:07.403Z,1010.97
2022-08-11T07:06:50.407Z,1010.97
2022-08-11T07:09:13.386Z,1010.97
2022-08-11T07:11:47.883Z,1010.95
2022-08-11T07:14:21.408Z,1010.94
2022-08-11T07:16:54.525Z,1010.93
2022-08-11T07:19:27.525Z,1010.93
2022-08-11T07:22:03.787Z,1010.91
2022-08-11T07:24:58.399Z,1010.91
2022-08-11T07:27:06.718Z,1010.91
2022-08-11T07:29:39.417Z,1010.90
2022-08-11T07:32:12.413Z,1010.89
2022-08-11T07:34:45.614Z,1010.88
2022-08-11T07:37:18.407Z,1010.85
2022-08-11T07:39:51.680Z,1010.83
2022-08-11T07:42:24.517Z,1010.82
2022-08-11T07:44:57.569Z,1010.81
2022-08-11T07:47:30.594Z,1010.80
2022-08-11T07:50:03.610Z,1010.80
2022-08-11T07:52:36.585Z,1010.81
2022-08-11T07:55:10.328Z,1010.81
2022-08-11T07:57:57.023Z,1010.79
2022-08-11T08:00:15.577Z,1010.79
2022-08-11T08:02:48.611Z,1010.78
2022-08-11T08:05:21.771Z,1010.77
2022-08-11T08:07:54.995Z,1010.77
2022-08-11T08:10:27.580Z,1010.79
2022-08-11T08:13:00.605Z,1010.79
2022-08-11T08:15:33.627Z,1010.79
2022-08-11T08:18:09.248Z,1010.80
2022-08-11T08:20:39.461Z,1010.80
2022-08-11T08:23:12.497Z,1010.81
2022-08-11T08:25:45.643Z,1010.82
2022-08-11T08:28:18.530Z,1010.81
2022-08-11T08:30:51.696Z,1010.81
2022-08-11T08:33:24.667Z,1010.83
2022-08-11T08:35:57.607Z,1010.83
2022-08-11T08:38:30.686Z,1010.84
2022-08-11T08:41:05.410Z,1010.83
2022-08-11T08:43:48.912Z,1010.82
2022-08-11T08:46:11.699Z,1010.81
2022-08-11T08:48:44.559Z,1010.80
2022-08-11T08:51:17.580Z,1010.80
2022-08-11T08:53:53.572Z,1010.79
2022-08-11T08:56:23.715Z,1010.79
2022-08-11T08:58:56.570Z,1010.79
2022-08-11T09:01:43.557Z,1010.77
2022-08-11T09:04:20.787Z,1010.77
2022-08-11T09:06:50.119Z,1010.77
2022-08-11T09:09:22.562Z,1010.77
2022-08-11T09:11:55.748Z,1010.78
2022-08-11T09:14:28.666Z,1010.80
2022-08-11T09:17:01.642Z,1010.80
2022-08-11T09:19:34.709Z,1010.81
2022-08-11T09:22:07.561Z,1010.83
2022-08-11T09:24:40.570Z,1010.83
2022-08-11T09:27:13.641Z,1010.83
2022-08-11T09:29:46.987Z,1010.84
2022-08-11T09:32:19.877Z,1010.84
2022-08-11T09:34:54.137Z,1010.84
2022-08-11T09:37:54.045Z,1010.84
2022-08-11T09:39:59.034Z,1010.84
2022-08-11T09:42:31.949Z,1010.84
2022-08-11T09:45:05.014Z,1010.82
2022-08-11T09:47:38.002Z,1010.82
2022-08-11T09:50:10.866Z,1010.78
2022-08-11T09:52:57.408Z,1010.72
2022-08-11T09:55:16.706Z,1010.71
2022-08-11T09:57:49.771Z,1010.71
2022-08-11T10:00:22.650Z,1010.70
2022-08-11T10:02:55.922Z,1010.68
2022-08-11T10:05:28.700Z,1010.66
2022-08-11T10:08:01.903Z,1010.67
2022-08-11T10:10:34.623Z,1010.67
2022-08-11T10:14:30.449Z,1010.66
2022-08-11T10:15:41.604Z,1010.64
2022-08-11T10:18:13.631Z,1010.62
2022-08-11T10:20:46.787Z,1010.58
2022-08-11T10:23:19.696Z,1010.56
2022-08-11T10:25:53.017Z,1010.57
2022-08-11T10:28:33.867Z,1010.58
2022-08-11T10:30:58.876Z,1010.57
2022-08-11T10:33:37.645Z,1010.55
2022-08-11T10:36:04.704Z,1010.55
2022-08-11T10:38:37.682Z,1010.51
2022-08-11T10:41:10.679Z,1010.48
2022-08-11T10:44:02.537Z,1010.47
2022-08-11T10:46:17.050Z,1010.45
2022-08-11T10:48:50.048Z,1010.43
2022-08-11T10:51:50.046Z,1010.39
2022-08-11T10:53:55.710Z,1010.35
2022-08-11T10:56:28.839Z,1010.32
2022-08-11T10:59:03.992Z,1010.29
2022-08-11T11:01:34.833Z,1010.28
2022-08-11T11:04:07.717Z,1010.25
2022-08-11T11:06:40.705Z,1010.24
2022-08-11T11:09:13.707Z,1010.21
2022-08-11T11:11:46.851Z,1010.20
2022-08-11T11:14:19.845Z,1010.18
2022-08-11T11:16:52.786Z,1010.14
2022-08-11T11:19:25.949Z,1010.13
2022-08-11T11:21:58.768Z,1010.11
2022-08-11T11:24:31.878Z,1010.10
2022-08-11T11:27:04.877Z,1010.07
2022-08-11T11:29:37.797Z,1010.04
2022-08-11T11:32:10.830Z,1010.01
2022-08-11T11:34:52.754Z,1009.98
2022-08-11T11:37:17.048Z,1009.94
2022-08-11T11:39:50.015Z,1009.91
2022-08-11T11:42:22.963Z,1009.87
2022-08-11T11:44:57.828Z,1009.87
2022-08-11T11:47:29.080Z,1009.85
2022-08-11T11:50:02.148Z,1009.81
2022-08-11T11:52:34.872Z,1009.81
2022-08-11T11:55:07.778Z,1009.77
2022-08-11T11:57:41.016Z,1009.73
2022-08-11T12:00:16.947Z,1009.68
2022-08-11T12:02:49.939Z,1009.64
2022-08-11T12:05:22.885Z,1009.60
2022-08-11T12:08:05.177Z,1009.55
2022-08-11T12:10:28.949Z,1009.50
2022-08-11T12:13:02.107Z,1009.48
2022-08-11T12:16:31.441Z,1009.45
2022-08-11T12:18:07.843Z,1009.44
2022-08-11T12:20:40.963Z,1009.41
2022-08-11T12:23:14.801Z,1009.37
2022-08-11T12:25:50.020Z,1009.36
2022-08-11T12:28:20.211Z,1009.32
2022-08-11T12:30:54.173Z,1009.28
2022-08-11T12:33:26.207Z,1009.25
2022-08-11T12:36:00.564Z,1009.24
2022-08-11T12:38:32.835Z,1009.21
2022-08-11T12:41:15.140Z,1009.18
2022-08-11T12:43:39.795Z,1009.11
2022-08-11T12:46:12.174Z,1009.07
2022-08-11T12:49:00.920Z,1009.03
2022-08-11T12:51:18.063Z,1009.00
2022-08-11T12:53:51.001Z,1008.97
2022-08-11T12:56:37.752Z,1008.95
2022-08-11T12:59:10.885Z,1008.90
2022-08-11T13:01:43.856Z,1008.85
2022-08-11T13:04:16.935Z,1008.83
2022-08-11T13:06:49.915Z,1008.82
2022-08-11T13:09:36.816Z,1008.79
2022-08-11T13:12:09.943Z,1008.76
2022-08-11T13:14:42.952Z,1008.72
2022-08-11T13:17:16.042Z,1008.69
2022-08-11T13:22:39.252Z,1008.67
2022-08-11T13:25:14.907Z,1008.65
2022-08-11T13:27:45.085Z,1008.60
2022-08-11T13:30:18.301Z,1008.57
2022-08-11T13:32:50.962Z,1008.53
2022-08-11T13:35:24.071Z,1008.52
2022-08-11T13:38:18.949Z,1008.47
2022-08-11T13:40:45.725Z,1008.41
2022-08-11T13:43:03.107Z,1008.40
2022-08-11T13:45:37.835Z,1008.39
2022-08-11T13:48:10.991Z,1008.38
2022-08-11T13:50:43.979Z,1008.36
2022-08-11T13:53:17.106Z,1008.36
2022-08-11T13:55:51.476Z,1008.33
2022-08-11T13:58:39.670Z,1008.32
2022-08-11T14:00:56.096Z,1008.29
2022-08-11T14:04:28.794Z,1008.24
2022-08-11T14:06:02.040Z,1008.20
2022-08-11T14:08:38.471Z,1008.18
2022-08-11T14:11:08.011Z,1008.14
2022-08-11T14:13:42.208Z,1008.11
2022-08-11T14:16:14.016Z,1008.08
2022-08-11T14:18:47.106Z,1008.05
2022-08-11T14:21:20.004Z,1008.01
2022-08-11T14:23:53.288Z,1008.00
2022-08-11T14:26:26.031Z,1007.96
2022-08-11T14:28:59.149Z,1007.92
2022-08-11T14:31:32.164Z,1007.89
2022-08-11T14:34:05.009Z,1007.87
2022-08-11T14:36:37.990Z,1007.88
2022-08-11T14:39:11.070Z,1007.86
2022-08-11T14:42:10.388Z,1007.84
2022-08-11T14:44:17.244Z,1007.81
2022-08-11T14:46:50.041Z,1007.80
2022-08-11T14:49:23.301Z,1007.78
2022-08-11T14:51:56.062Z,1007.75
2022-08-11T14:54:29.106Z,1007.73
2022-08-11T14:57:02.157Z,1007.69
2022-08-11T14:59:35.039Z,1007.67
2022-08-11T15:02:08.042Z,1007.66
2022-08-11T15:04:41.039Z,1007.63
2022-08-11T15:07:16.321Z,1007.58
2022-08-11T15:10:11.743Z,1007.54
2022-08-11T15:12:32.579Z,1007.54
2022-08-11T15:14:55.909Z,1007.53
2022-08-11T15:17:29.451Z,1007.53
2022-08-11T15:19:59.050Z,1007.51
2022-08-11T15:22:32.048Z,1007.49
2022-08-11T15:25:05.063Z,1007.47
2022-08-11T15:27:38.234Z,1007.46
2022-08-11T15:30:11.092Z,1007.45
2022-08-11T15:32:44.143Z,1007.40
2022-08-11T15:35:17.259Z,1007.41
2022-08-11T15:37:50.178Z,1007.42
2022-08-11T15:40:32.859Z,1007.41
2022-08-11T15:42:56.358Z,1007.40
2022-08-11T15:45:29.472Z,1007.37
2022-08-11T15:48:05.356Z,1007.36
2022-08-11T15:50:35.276Z,1007.34
2022-08-11T15:53:08.397Z,1007.34
2022-08-11T15:55:41.443Z,1007.31
2022-08-11T15:58:14.115Z,1007.31
2022-08-11T16:00:47.372Z,1007.31
2022-08-11T16:03:20.253Z,1007.29
2022-08-11T16:06:07.083Z,1007.28
2022-08-11T16:08:40.116Z,1007.24
2022-08-11T16:11:13.153Z,1007.21
2022-08-11T16:13:46.159Z,1007.19
2022-08-11T16:16:19.379Z,1007.18
2022-08-11T16:18:52.317Z,1007.16
2022-08-11T16:21:33.643Z,1007.15
2022-08-11T16:23:58.481Z,1007.13
2022-08-11T16:27:08.581Z,1007.13
2022-08-11T16:29:04.546Z,1007.11
2022-08-11T16:31:37.491Z,1007.08
2022-08-11T16:34:10.182Z,1007.05
2022-08-11T16:36:43.545Z,1007.03
2022-08-11T16:39:16.455Z,1007.01
2022-08-11T16:41:49.468Z,1006.99
2022-08-11T16:44:37.047Z,1006.98
2022-08-11T16:46:55.469Z,1006.98
2022-08-11T16:49:32.799Z,1006.97
2022-08-11T16:52:01.309Z,1006.96
2022-08-11T16:54:34.285Z,1006.95
2022-08-11T16:57:16.283Z,1006.94
2022-08-11T16:59:40.205Z,1006.93
2022-08-11T17:02:13.200Z,1006.91
2022-08-11T17:04:46.248Z,1006.89
2022-08-11T17:07:23.787Z,1006.89
2022-08-11T17:09:52.505Z,1006.88
2022-08-11T17:12:25.346Z,1006.89
2022-08-11T17:14:58.264Z,1006.88
2022-08-11T17:17:31.224Z,1006.87
2022-08-11T17:20:42.417Z,1006.87
2022-08-11T17:22:37.320Z,1006.85
2022-08-11T17:25:10.329Z,1006.84
2022-08-11T17:27:43.370Z,1006.81
2022-08-11T17:30:16.305Z,1006.79
2022-08-11T17:32:57.264Z,1006.78
2022-08-11T17:35:22.468Z,1006.76
2022-08-11T17:37:55.381Z,1006.75
2022-08-11T17:40:28.469Z,1006.74
2022-08-11T17:43:01.407Z,1006.74
2022-08-11T17:45:34.305Z,1006.72
2022-08-11T17:48:07.288Z,1006.71
2022-08-11T17:50:40.295Z,1006.73
2022-08-11T17:53:13.377Z,1006.73
2022-08-11T17:55:52.229Z,1006.75
2022-08-11T17:58:19.431Z,1006.76
2022-08-11T18:00:52.277Z,1006.77
2022-08-11T18:03:25.322Z,1006.78
2022-08-11T18:05:58.313Z,1006.80
2022-08-11T18:08:31.279Z,1006.83
2022-08-11T18:11:04.629Z,1006.85
2022-08-11T18:13:37.297Z,1006.87
2022-08-11T18:16:10.307Z,1006.89
2022-08-11T18:18:43.433Z,1006.93
2022-08-11T18:21:20.203Z,1006.94
2022-08-11T18:23:53.464Z,1006.95
2022-08-11T18:26:26.497Z,1006.97
2022-08-11T18:28:59.369Z,1006.98
2022-08-11T18:31:32.507Z,1006.99
2022-08-11T18:34:08.023Z,1007.01
2022-08-11T18:36:38.383Z,1007.01
2022-08-11T18:39:11.493Z,1007.03
2022-08-11T18:41:44.523Z,1007.04
2022-08-11T18:44:17.511Z,1007.04
2022-08-11T18:46:50.535Z,1007.04
2022-08-11T18:49:23.551Z,1007.05
2022-08-11T18:51:56.541Z,1007.05
2022-08-11T18:54:29.504Z,1007.05
2022-08-11T18:57:02.476Z,1007.05
2022-08-11T18:59:35.514Z,1007.03
2022-08-11T19:02:08.687Z,1007.02
2022-08-11T19:04:43.598Z,1007.02
2022-08-11T19:07:20.431Z,1007.01
2022-08-11T19:09:49.525Z,1007.02
2022-08-11T19:12:22.410Z,1007.03
2022-08-11T19:14:55.613Z,1007.02
2022-08-11T19:17:45.094Z,1007.03
2022-08-11T19:20:01.446Z,1007.03
2022-08-11T19:22:34.691Z,1007.05
2022-08-11T19:25:07.410Z,1007.07
2022-08-11T19:27:40.759Z,1007.10
2022-08-11T19:30:14.363Z,1007.11
2022-08-11T19:32:46.415Z,1007.12
2022-08-11T19:35:19.434Z,1007.13
2022-08-11T19:37:52.587Z,1007.16
2022-08-11T19:40:25.508Z,1007.18
2022-08-11T19:42:58.495Z,1007.19
2022-08-11T19:45:31.547Z,1007.20
2022-08-11T19:48:29.951Z,1007.22
2022-08-11T19:50:37.805Z,1007.23
2022-08-11T19:53:16.979Z,1007.23
2022-08-11T19:55:43.531Z,1007.21
2022-08-11T19:58:16.445Z,1007.22
2022-08-11T20:00:49.606Z,1007.21
2022-08-11T20:03:22.699Z,1007.21
2022-08-11T20:05:59.698Z,1007.21
2022-08-11T20:08:28.664Z,1007.23
2022-08-11T20:11:01.460Z,1007.24
2022-08-11T20:13:34.475Z,1007.24
2022-08-11T20:16:07.992Z,1007.24
2022-08-11T20:18:41.531Z,1007.25
2022-08-11T20:21:22.726Z,1007.26
2022-08-11T20:23:47.642Z,1007.26
2022-08-11T20:26:30.655Z,1007.25
2022-08-11T20:28:53.837Z,1007.26
2022-08-11T20:31:26.865Z,1007.26
2022-08-11T20:33:59.629Z,1007.26
2022-08-11T20:36:32.845Z,1007.27
2022-08-11T20:39:05.587Z,1007.29
2022-08-11T20:41:58.802Z,1007.29
2022-08-11T20:44:11.755Z,1007.31
2022-08-11T20:46:44.814Z,1007.32
2022-08-11T20:49:17.719Z,1007.32
2022-08-11T20:51:50.740Z,1007.33
2022-08-11T20:54:41.938Z,1007.34
2022-08-11T20:56:57.860Z,1007.34
2022-08-11T20:59:29.601Z,1007.34
2022-08-11T21:02:03.087Z,1007.34
2022-08-11T21:04:35.824Z,1007.36
2022-08-11T21:07:08.561Z,1007.37
2022-08-11T21:10:00.772Z,1007.39
2022-08-11T21:12:16.582Z,1007.39
2022-08-11T21:14:49.671Z,1007.39
2022-08-11T21:17:28.149Z,1007.40
2022-08-11T21:20:06.850Z,1007.40
2022-08-11T21:22:28.719Z,1007.41
2022-08-11T21:25:01.823Z,1007.43
2022-08-11T21:27:34.932Z,1007.47
2022-08-11T21:30:07.848Z,1007.50
2022-08-11T21:32:41.068Z,1007.52
2022-08-11T21:35:13.581Z,1007.54
2022-08-11T21:37:46.809Z,1007.55
2022-08-11T21:40:19.815Z,1007.55
2022-08-11T21:42:52.757Z,1007.55
2022-08-11T21:45:25.667Z,1007.56
2022-08-11T21:48:00.860Z,1007.54
2022-08-11T21:50:31.749Z,1007.54
2022-08-11T21:53:04.751Z,1007.53
2022-08-11T21:55:37.800Z,1007.52
2022-08-11T21:58:10.658Z,1007.51
2022-08-11T22:00:43.808Z,1007.50
2022-08-11T22:03:16.666Z,1007.51
2022-08-11T22:05:49.657Z,1007.50
2022-08-11T22:08:22.858Z,1007.51
2022-08-11T22:10:55.629Z,1007.51
2022-08-11T22:13:28.717Z,1007.50
2022-08-11T22:16:01.765Z,1007.49
2022-08-11T22:18:34.728Z,1007.50
2022-08-11T22:21:07.637Z,1007.53
2022-08-11T22:23:40.753Z,1007.53
2022-08-11T22:26:13.640Z,1007.54
2022-08-11T22:28:46.752Z,1007.56
2022-08-11T22:31:19.878Z,1007.57
2022-08-11T22:34:02.883Z,1007.59
2022-08-11T22:36:26.034Z,1007.59
2022-08-11T22:38:58.868Z,1007.61
2022-08-11T22:41:32.037Z,1007.60
2022-08-11T22:44:04.997Z,1007.59
2022-08-11T22:46:37.998Z,1007.59
2022-08-11T22:49:11.043Z,1007.58
2022-08-11T22:51:43.993Z,1007.58
2022-08-11T22:54:17.030Z,1007.58
2022-08-11T22:56:50.095Z,1007.58
2022-08-11T22:59:22.990Z,1007.58
2022-08-11T23:01:56.438Z,1007.57
2022-08-11T23:04:29.018Z,1007.56
2022-08-11T23:07:02.062Z,1007.55
2022-08-11T23:09:34.969Z,1007.54
2022-08-11T23:12:10.400Z,1007.53
2022-08-11T23:14:41.054Z,1007.52
2022-08-11T23:17:14.034Z,1007.51
2022-08-11T23:20:11.135Z,1007.52
2022-08-11T23:22:20.089Z,1007.51
2022-08-11T23:24:53.076Z,1007.52
2022-08-11T23:27:26.141Z,1007.51
2022-08-11T23:29:58.836Z,1007.52
2022-08-11T23:32:32.133Z,1007.51
2022-08-11T23:35:38.602Z,1007.51
2022-08-11T23:37:38.065Z,1007.51
2022-08-11T23:40:11.096Z,1007.50
2022-08-11T23:42:46.332Z,1007.49
2022-08-11T23:45:22.677Z,1007.48
2022-08-11T23:47:52.184Z,1007.48
2022-08-11T23:50:25.108Z,1007.47
2022-08-11T23:52:58.161Z,1007.47
2022-08-11T23:55:31.150Z,1007.44
2022-08-11T23:58:04.164Z,1007.42
